Time;durP1;ratioP1;P1;durP2;ratioP2;P2;SDS_P1;SDS_P2;PMS_P1;PMS_P2;Temp;Humidity;BMP_temperature;BMP_pressure;BME280_temperature;BME280_humidity;BME280_pressure;Samples;Min_cycle;Max_cycle;Signal;HPM_P1;HPM_P2
2023/09/13 00:00:38;;;;;;;11.38;2.67;;;;;;;;;;5085663;28;20190;-86
2023/09/13 00:03:04;;;;;;;8.93;2.20;;;;;;;;;;5052821;28;20045;-86
2023/09/13 00:05:30;;;;;;;5.35;2.45;;;;;;;;;;5068339;28;20075;-85
2023/09/13 00:07:56;;;;;;;4.53;2.78;;;;;;;;;;5052809;28;20060;-86
2023/09/13 00:10:22;;;;;;;7.53;2.42;;;;;;;;;;5085109;28;20550;-86
2023/09/13 00:12:48;;;;;;;8.55;2.70;;;;;;;;;;5051414;28;20051;-86
2023/09/13 00:15:14;;;;;;;5.57;2.55;;;;;;;;;;5051637;28;20495;-85
2023/09/13 00:17:40;;;;;;;7.38;3.35;;;;;;;;;;5088677;28;20375;-86
2023/09/13 00:20:07;;;;;;;7.30;2.22;;;;;;;;;;5052744;28;20049;-86
2023/09/13 00:22:33;;;;;;;7.32;1.90;;;;;;;;;;5085766;28;20460;-86
2023/09/13 00:24:59;;;;;;;5.97;2.97;;;;;;;;;;5053000;28;20064;-85
2023/09/13 00:27:25;;;;;;;6.82;2.15;;;;;;;;;;5053028;28;20132;-86
2023/09/13 00:29:54;;;;;;;6.75;2.00;;;;;;;;;;5068225;28;20110;-86
2023/09/13 00:32:20;;;;;;;5.32;2.00;;;;;;;;;;5067981;28;20080;-85
2023/09/13 00:34:46;;;;;;;14.23;3.10;;;;;;;;;;5052567;28;20094;-86
2023/09/13 00:37:12;;;;;;;4.40;1.75;;;;;;;;;;5052396;28;20128;-86
2023/09/13 00:39:38;;;;;;;10.77;3.00;;;;;;;;;;5050542;28;20052;-85
2023/09/13 00:42:04;;;;;;;6.78;2.47;;;;;;;;;;5050793;28;20087;-85
2023/09/13 00:44:30;;;;;;;4.88;1.98;;;;;;;;;;5084761;28;20045;-85
2023/09/13 00:46:56;;;;;;;7.35;2.38;;;;;;;;;;5051170;28;20452;-86
2023/09/13 00:49:23;;;;;;;5.53;1.77;;;;;;;;;;5051166;28;20041;-86
2023/09/13 00:51:50;;;;;;;5.03;2.15;;;18.00;1.00;;;;;;5050959;28;20041;-86
2023/09/13 00:54:16;;;;;;;5.95;1.70;;;;;;;;;;5050375;28;20040;-86
2023/09/13 00:56:42;;;;;;;6.72;2.53;;;;;;;;;;5052097;28;20409;-86
2023/09/13 00:59:09;;;;;;;7.95;2.13;;;;;;;;;;5067264;28;20044;-86
2023/09/13 01:01:35;;;;;;;4.20;2.00;;;;;;;;;;5052165;28;20041;-85
2023/09/13 01:04:02;;;;;;;4.88;2.00;;;;;;;;;;5083258;28;20067;-86
2023/09/13 01:06:28;;;;;;;4.03;2.05;;;;;;;;;;5050997;28;20417;-84
2023/09/13 01:08:58;;;;;;;6.10;2.03;;;;;;;;;;5084088;28;20040;-84
2023/09/13 01:11:24;;;;;;;5.35;2.33;;;;;;;;;;5084348;28;20063;-85
2023/09/13 01:13:50;;;;;;;5.50;1.73;;;;;;;;;;5050378;28;20551;-86
2023/09/13 01:16:16;;;;;;;4.07;1.73;;;;;;;;;;5084238;28;20044;-85
2023/09/13 01:18:50;;;;;;;10.23;2.42;;;;;;;;;;5050576;28;20033;-84
2023/09/13 01:21:36;;;;;;;;;;;17.90;1.00;;;;;;5084524;28;20147;-85
2023/09/13 01:24:02;;;;;;;6.53;3.20;;;;;;;;;;5084039;28;19921;-84
2023/09/13 01:26:46;;;;;;;7.20;2.10;;;17.80;1.00;;;;;;5084151;28;20508;-85
2023/09/13 01:29:16;;;;;;;3.55;1.80;;;18.10;1.00;;;;;;5067420;28;20497;-85
2023/09/13 01:31:43;;;;;;;6.47;2.60;;;17.90;1.00;;;;;;5067038;28;20115;-85
2023/09/13 01:34:10;;;;;;;8.57;2.45;;;;;;;;;;5067275;28;20049;-85
2023/09/13 01:36:37;;;;;;;13.45;2.55;;;;;;;;;;5084195;28;20115;-85
2023/09/13 01:39:04;;;;;;;6.80;1.70;;;;;;;;;;5083585;28;20506;-85
2023/09/13 01:41:55;;;;;;;5.00;1.75;;;17.90;1.00;;;;;;5050364;28;20056;-84
2023/09/13 01:44:21;;;;;;;5.28;3.03;;;;;;;;;;5067342;28;20049;-86
2023/09/13 01:46:50;;;;;;;10.73;3.45;;;17.90;1.00;;;;;;5083651;28;20044;-85
2023/09/13 01:49:18;;;;;;;5.32;2.40;;;17.70;1.00;;;;;;5050092;28;20041;-85
2023/09/13 01:51:45;;;;;;;7.97;2.70;;;18.00;1.00;;;;;;5033887;28;20045;-85
2023/09/13 01:54:12;;;;;;;9.23;2.60;;;;;;;;;;5051646;28;20045;-85
2023/09/13 01:56:38;;;;;;;6.07;2.10;;;;;;;;;;5067346;28;20080;-85
2023/09/13 01:59:04;;;;;;;7.47;2.08;;;;;;;;;;5052002;28;20041;-85
2023/09/13 02:01:30;;;;;;;9.60;1.92;;;;;;;;;;5067180;28;20059;-86
2023/09/13 02:03:56;;;;;;;8.30;2.97;;;;;;;;;;5067272;28;20037;-86
2023/09/13 02:06:22;;;;;;;5.68;1.90;;;;;;;;;;5084285;28;20054;-85
2023/09/13 02:08:48;;;;;;;2.33;1.75;;;;;;;;;;5050723;28;20041;-86
2023/09/13 02:11:14;;;;;;;7.00;2.08;;;;;;;;;;5050181;28;20037;-86
2023/09/13 02:13:41;;;;;;;6.38;2.78;;;;;;;;;;5050250;28;20045;-86
2023/09/13 02:16:07;;;;;;;3.17;1.63;;;;;;;;;;5087512;28;20427;-86
2023/09/13 02:18:34;;;;;;;4.28;1.88;;;;;;;;;;5054232;28;20045;-86
2023/09/13 02:21:00;;;;;;;9.18;2.13;;;;;;;;;;5053990;28;20037;-86
2023/09/13 02:23:26;;;;;;;5.55;2.00;;;;;;;;;;5087149;28;20056;-86
2023/09/13 02:25:52;;;;;;;2.95;2.47;;;;;;;;;;5087193;28;20051;-86
2023/09/13 02:28:18;;;;;;;5.13;2.53;;;;;;;;;;5087040;28;20045;-86
2023/09/13 02:30:46;;;;;;;8.05;2.90;;;17.70;1.00;;;;;;5087095;28;20044;-85
2023/09/13 02:33:12;;;;;;;3.90;2.22;;;;;;;;;;5070255;28;20489;-86
2023/09/13 02:35:38;;;;;;;6.95;2.80;;;;;;;;;;5087187;28;20041;-86
2023/09/13 02:38:04;;;;;;;6.72;2.22;;;;;;;;;;5053440;28;20111;-85
2023/09/13 02:40:30;;;;;;;7.68;2.38;;;;;;;;;;5053003;28;20056;-86
2023/09/13 02:42:56;;;;;;;6.53;2.00;;;;;;;;;;5087114;28;20041;-86
2023/09/13 02:45:22;;;;;;;6.53;2.20;;;;;;;;;;5053097;28;20086;-86
2023/09/13 02:47:48;;;;;;;4.38;1.83;;;;;;;;;;5086883;28;20045;-85
2023/09/13 02:50:14;;;;;;;6.22;2.20;;;;;;;;;;5086750;28;20084;-85
2023/09/13 02:52:41;;;;;;;2.83;1.85;;;;;;;;;;5086500;28;20075;-86
2023/09/13 02:55:07;;;;;;;3.58;1.73;;;;;;;;;;5052720;28;20048;-86
2023/09/13 02:57:34;;;;;;;7.90;1.75;;;;;;;;;;5053193;28;20049;-86
2023/09/13 03:00:00;;;;;;;7.28;2.15;;;;;;;;;;5052843;28;20559;-86
2023/09/13 03:02:26;;;;;;;3.28;1.70;;;;;;;;;;5086717;28;20489;-86
2023/09/13 03:04:53;;;;;;;4.68;1.80;;;;;;;;;;5086358;28;20045;-86
2023/09/13 03:07:19;;;;;;;8.25;2.65;;;;;;;;;;5053179;28;20076;-86
2023/09/13 03:09:46;;;;;;;4.68;2.00;;;;;;;;;;5086212;28;20095;-87
2023/09/13 03:12:13;;;;;;;5.32;2.20;;;;;;;;;;5086609;28;20057;-86
2023/09/13 03:14:39;;;;;;;4.90;1.80;;;;;;;;;;5086123;28;20040;-86
2023/09/13 03:17:05;;;;;;;5.40;2.45;;;;;;;;;;5086486;28;20466;-86
2023/09/13 03:19:31;;;;;;;5.38;2.05;;;;;;;;;;5052856;28;20401;-86
2023/09/13 03:21:58;;;;;;;2.13;1.77;;;;;;;;;;5052279;28;20144;-86
2023/09/13 03:24:24;;;;;;;7.95;1.90;;;;;;;;;;5052359;28;20079;-86
2023/09/13 03:26:51;;;;;;;5.95;2.20;;;;;;;;;;5085083;28;20097;-86
2023/09/13 03:29:17;;;;;;;9.95;2.42;;;;;;;;;;5085979;28;20499;-86
2023/09/13 03:31:43;;;;;;;5.43;1.88;;;;;;;;;;5086351;28;20044;-86
2023/09/13 03:34:09;;;;;;;4.38;1.85;;;;;;;;;;5086126;28;20055;-86
2023/09/13 03:36:35;;;;;;;4.85;1.55;;;;;;;;;;5052589;28;20045;-87
2023/09/13 03:39:02;;;;;;;3.38;1.88;;;;;;;;;;5052602;28;20095;-86
2023/09/13 03:41:28;;;;;;;2.45;1.80;;;;;;;;;;5086082;28;20053;-87
2023/09/13 03:43:54;;;;;;;5.93;2.25;;;;;;;;;;5052611;28;20074;-85
2023/09/13 03:46:20;;;;;;;6.32;1.95;;;;;;;;;;5052061;28;20048;-85
2023/09/13 03:48:46;;;;;;;4.68;1.88;;;;;;;;;;5086347;28;20652;-87
2023/09/13 03:51:12;;;;;;;6.10;2.25;;;;;;;;;;5086132;28;20044;-87
2023/09/13 03:53:39;;;;;;;5.47;2.17;;;;;;;;;;5085783;28;20152;-86
2023/09/13 03:56:05;;;;;;;5.25;1.63;;;17.00;1.00;;;;;;5085517;28;20040;-85
2023/09/13 03:58:34;;;;;;;5.53;1.83;;;17.00;1.00;;;;;;5085120;28;20063;-87
2023/09/13 04:01:00;;;;;;;7.70;1.77;;;;;;;;;;5035885;28;20444;-86
2023/09/13 04:03:27;;;;;;;5.10;1.70;;;;;;;;;;5051854;28;20504;-83
2023/09/13 04:05:53;;;;;;;8.15;2.00;;;;;;;;;;5085171;28;20084;-84
2023/09/13 04:08:19;;;;;;;4.05;1.55;;;;;;;;;;5085321;28;20139;-85
2023/09/13 04:10:45;;;;;;;6.60;2.85;;;;;;;;;;5085036;28;20037;-85
2023/09/13 04:13:12;;;;;;;4.13;2.20;;;;;;;;;;5068239;28;20060;-87
2023/09/13 04:15:38;;;;;;;8.20;2.17;;;;;;;;;;5053126;28;20048;-87
2023/09/13 04:18:04;;;;;;;11.27;2.53;;;;;;;;;;5052034;28;20373;-86
2023/09/13 04:20:31;;;;;;;8.05;2.50;;;;;;;;;;5053269;28;20148;-88
2023/09/13 04:22:57;;;;;;;7.45;2.30;;;;;;;;;;5085050;28;20060;-88
2023/09/13 04:25:23;;;;;;;12.20;3.10;;;;;;;;;;5084926;28;20404;-87
2023/09/13 04:27:49;;;;;;;6.45;3.13;;;;;;;;;;5084973;28;20045;-90
2023/09/13 04:30:16;;;;;;;3.40;1.90;;;16.50;1.00;;;;;;5085679;28;20077;-91
2023/09/13 04:32:42;;;;;;;9.63;2.40;;;;;;;;;;5068339;28;20037;-89
2023/09/13 04:35:09;;;;;;;10.18;2.28;;;;;;;;;;5052006;28;20040;-88
2023/09/13 04:37:35;;;;;;;7.05;2.67;;;;;;;;;;5084997;28;20397;-88
2023/09/13 04:40:07;;;;;;;6.68;2.63;;;;;;;;;;5051001;28;20092;-88
2023/09/13 04:42:37;;;;;;;10.73;2.83;;;;;;;;;;5051603;28;20394;-87
2023/09/13 04:45:04;;;;;;;11.18;2.30;;;16.20;1.00;;;;;;5085051;28;20047;-87
2023/09/13 04:47:30;;;;;;;6.90;2.50;;;;;;;;;;5068310;28;20052;-89
2023/09/13 04:49:56;;;;;;;9.23;2.72;;;;;;;;;;5084540;28;20511;-90
2023/09/13 04:52:22;;;;;;;3.45;1.90;;;;;;;;;;5084834;28;20051;-89
2023/09/13 04:54:49;;;;;;;14.73;2.38;;;;;;;;;;5051166;28;20057;-90
2023/09/13 04:57:15;;;;;;;6.82;2.50;;;;;;;;;;5085321;28;20385;-91
2023/09/13 04:59:47;;;;;;;9.43;2.38;;;;;;;;;;5086876;28;20432;-92
2023/09/13 05:02:13;;;;;;;8.07;2.92;;;;;;;;;;5086030;28;20040;-90
2023/09/13 05:04:40;;;;;;;5.85;2.40;;;;;;;;;;5051492;28;20060;-89
2023/09/13 05:07:06;;;;;;;7.20;2.70;;;;;;;;;;5085707;28;20052;-85
2023/09/13 05:09:32;;;;;;;6.28;2.45;;;;;;;;;;5051678;28;20046;-84
2023/09/13 05:11:59;;;;;;;9.20;2.55;;;;;;;;;;5051378;28;20041;-89
2023/09/13 05:14:25;;;;;;;9.10;2.13;;;;;;;;;;5051395;28;20048;-87
2023/09/13 05:16:52;;;;;;;8.70;2.67;;;;;;;;;;5084677;28;20048;-91
2023/09/13 05:19:18;;;;;;;7.80;2.30;;;;;;;;;;5085060;28;20452;-87
2023/09/13 05:21:44;;;;;;;8.95;3.15;;;;;;;;;;5084763;28;20131;-88
2023/09/13 05:24:10;;;;;;;7.47;2.78;;;;;;;;;;5084445;28;20493;-85
2023/09/13 05:26:37;;;;;;;9.38;2.20;;;;;;;;;;5051253;28;20048;-85
2023/09/13 05:29:03;;;;;;;11.18;2.72;;;;;;;;;;5084596;28;20493;-87
2023/09/13 05:31:29;;;;;;;3.15;1.98;;;;;;;;;;5053206;28;20091;-85
2023/09/13 05:33:55;;;;;;;9.65;2.55;;;;;;;;;;5085235;28;20102;-88
2023/09/13 05:36:21;;;;;;;6.75;2.35;;;;;;;;;;5052530;28;20041;-89
2023/09/13 05:38:49;;;;;;;10.13;3.75;;;15.30;3.00;;;;;;5085628;28;20055;-88
2023/09/13 05:41:15;;;;;;;7.97;2.65;;;;;;;;;;5086168;28;20095;-90
2023/09/13 05:43:42;;;;;;;8.35;2.30;;;;;;;;;;5086045;28;20052;-88
2023/09/13 05:46:08;;;;;;;5.53;2.58;;;;;;;;;;5054159;28;20048;-90
2023/09/13 05:48:35;;;;;;;5.20;2.83;;;;;;;;;;5054395;28;20105;-90
2023/09/13 05:51:07;;;;;;;9.63;3.20;;;;;;;;;;5090137;28;20067;-86
2023/09/13 05:53:33;;;;;;;21.08;3.95;;;;;;;;;;5092407;28;20095;-91
2023/09/13 05:55:59;;;;;;;8.60;2.95;;;;;;;;;;5058043;28;20044;-88
2023/09/13 05:58:25;;;;;;;10.75;3.08;;;;;;;;;;5091781;28;20040;-95
2023/09/13 06:00:52;;;;;;;8.77;3.53;;;;;;;;;;5058482;28;20100;-95
2023/09/13 06:03:19;;;;;;;13.82;3.33;;;;;;;;;;5058457;28;20098;-86
2023/09/13 06:05:50;;;;;;;10.73;3.20;;;;;;;;;;5056896;28;20045;-90
2023/09/13 06:08:20;;;;;;;9.43;3.45;;;;;;;;;;5090187;28;20048;-88
2023/09/13 06:10:52;;;;;;;12.30;2.83;;;;;;;;;;5089805;28;20045;-89
2023/09/13 06:13:18;;;;;;;9.00;3.70;;;;;;;;;;5091481;28;20060;-93
2023/09/13 06:15:44;;;;;;;8.63;3.67;;;;;;;;;;5091473;28;20037;-92
2023/09/13 06:18:16;;;;;;;7.25;2.63;;;;;;;;;;5090811;28;20076;-92
2023/09/13 06:20:42;;;;;;;12.90;4.05;;;;;;;;;;5089086;28;20094;-90
2023/09/13 06:23:28;;;;;;;13.15;3.50;;;;;;;;;;5089150;28;20044;-91
2023/09/13 06:25:54;;;;;;;6.50;2.95;;;;;;;;;;5088225;28;20040;-89
2023/09/13 06:28:20;;;;;;;12.55;3.60;;;;;;;;;;5051863;28;20045;-88
2023/09/13 06:30:46;;;;;;;8.00;2.58;;;;;;;;;;5051576;28;20053;-88
2023/09/13 06:33:12;;;;;;;6.82;3.10;;;;;;;;;;5071502;28;20040;-91
2023/09/13 06:35:38;;;;;;;12.25;3.08;;;;;;;;;;5087929;28;20142;-88
2023/09/13 06:38:04;;;;;;;5.05;2.70;;;;;;;;;;5071393;28;20072;-86
2023/09/13 06:40:33;;;;;;;10.52;3.38;;;;;;;;;;5087634;28;20562;-87
2023/09/13 06:42:59;;;;;;;8.23;3.15;;;;;;;;;;5055517;28;20096;-87
2023/09/13 06:45:25;;;;;;;13.95;2.47;;;;;;;;;;5054235;28;20542;-88
2023/09/13 06:47:51;;;;;;;5.53;2.75;;;;;;;;;;5055636;28;20087;-89
2023/09/13 06:50:17;;;;;;;7.60;3.40;;;;;;;;;;5071396;28;20405;-89
2023/09/13 06:52:44;;;;;;;11.20;4.07;;;;;;;;;;5088201;28;20041;-88
2023/09/13 06:55:10;;;;;;;9.82;3.05;;;;;;;;;;5074183;28;20050;-90
2023/09/13 06:57:36;;;;;;;27.42;9.18;;;;;;;;;;5062610;28;20539;-89
2023/09/13 07:00:08;;;;;;;10.32;2.20;;;;;;;;;;5040770;28;20045;-90
2023/09/13 07:02:34;;;;;;;4.95;1.70;;;;;;;;;;5032384;28;20104;-88
2023/09/13 07:05:03;;;;;;;6.53;4.72;;;;;;;;;;5034564;28;20156;-92
2023/09/13 07:07:29;;;;;;;6.57;4.53;;;;;;;;;;5033742;28;20060;-90
2023/09/13 07:09:55;;;;;;;10.25;6.43;;;;;;;;;;5052957;28;20088;-88
2023/09/13 07:12:21;;;;;;;15.55;3.88;;;;;;;;;;5067316;28;20124;-89
2023/09/13 07:14:47;;;;;;;7.47;3.55;;;;;;;;;;5067426;28;20048;-91
2023/09/13 07:17:18;;;;;;;10.15;2.70;;;;;;;;;;5033674;28;20498;-91
2023/09/13 07:19:44;;;;;;;13.25;3.40;;;;;;;;;;5033077;28;20595;-91
2023/09/13 07:22:10;;;;;;;6.32;2.67;;;;;;;;;;5049604;28;20509;-90
2023/09/13 07:24:36;;;;;;;8.25;2.95;;;;;;;;;;5033159;28;20129;-90
2023/09/13 07:27:02;;;;;;;6.78;2.58;;;;;;;;;;5050735;28;20092;-91
2023/09/13 07:29:28;;;;;;;5.25;2.70;;;;;;;;;;5038499;28;20137;-93
2023/09/13 07:31:54;;;;;;;10.63;2.40;;;;;;;;;;5068707;28;20045;-92
2023/09/13 07:34:20;;;;;;;7.43;2.92;;;;;;;;;;5034457;28;20045;-92
2023/09/13 07:36:46;;;;;;;9.45;3.00;;;;;;;;;;5050464;28;20041;-92
2023/09/13 07:39:13;;;;;;;6.30;2.00;;;;;;;;;;5050959;28;20069;-94
2023/09/13 07:41:39;;;;;;;9.68;2.50;;;;;;;;;;5001512;28;20057;-93
2023/09/13 07:44:05;;;;;;;4.47;2.83;;;;;;;;;;5066979;28;20041;-94
2023/09/13 07:46:31;;;;;;;6.03;2.10;;;;;;;;;;5068547;28;20049;-94
2023/09/13 07:48:57;;;;;;;6.18;2.42;;;;;;;;;;5066981;28;20045;-92
2023/09/13 07:51:38;;;;;;;3.80;2.22;;;;;;;;;;5067644;28;20049;-94
2023/09/13 07:54:07;;;;;;;8.18;2.40;;;;;;;;;;5061703;28;20046;-95
2023/09/13 07:56:37;;;;;;;8.10;1.95;;;;;;;;;;5034085;28;20131;-92
2023/09/13 07:59:04;;;;;;;12.77;3.47;;;;;;;;;;5033806;28;20049;-94
2023/09/13 08:01:43;;;;;;;7.93;2.40;;;;;;;;;;5051826;28;20080;-91
2023/09/13 08:04:09;;;;;;;4.53;2.05;;;;;;;;;;5062478;28;20048;-91
2023/09/13 08:06:41;;;;;;;8.45;1.92;;;;;;;;;;5030776;28;20084;-91
2023/09/13 08:09:08;;;;;;;6.13;2.53;;;;;;;;;;5045369;28;20057;-92
2023/09/13 08:11:38;;;;;;;13.25;2.88;;;;;;;;;;5036340;28;20045;-91
2023/09/13 08:16:37;;;;;;;3.95;2.17;;;;;;;;;;5013025;28;20050;-90
2023/09/13 08:19:03;;;;;;;10.98;2.90;;;;;;;;;;4993158;28;20042;-90
2023/09/13 08:21:29;;;;;;;2.95;1.60;;;;;;;;;;4962972;28;20130;-91
2023/09/13 08:23:56;;;;;;;15.27;2.97;;;;;;;;;;4947514;28;20038;-90
2023/09/13 08:26:22;;;;;;;9.18;3.28;;;;;;;;;;4961306;28;20069;-91
2023/09/13 08:28:49;;;;;;;5.28;2.05;;;;;;;;;;4973751;28;20120;-91
2023/09/13 08:31:16;;;;;;;6.97;2.20;;;;;;;;;;4964992;28;20112;-92
2023/09/13 08:33:42;;;;;;;6.15;2.13;;;;;;;;;;4996328;28;20053;-93
2023/09/13 08:36:09;;;;;;;5.72;2.20;;;;;;;;;;4980270;28;20048;-91
2023/09/13 08:38:35;;;;;;;10.82;3.08;;;;;;;;;;4980818;28;20042;-90
2023/09/13 08:41:03;;;;;;;10.23;2.97;;;;;;;;;;4981185;28;20042;-91
2023/09/13 08:47:20;;;;;;;13.13;3.20;;;;;;;;;;5491684;23;20069;-93
2023/09/13 08:49:30;;;;;;;10.13;3.13;;;;;;;;;;4992235;28;20396;-96
2023/09/13 08:51:56;;;;;;;6.78;2.90;;;;;;;;;;5002259;28;20042;-92
2023/09/13 08:54:34;;;;;;;9.32;3.47;;;;;;;;;;5000030;28;20058;-96
2023/09/13 08:57:59;;;;;;;7.93;3.05;;;15.90;1.00;;;;;;4981491;28;20088;-91
2023/09/13 09:00:27;;;;;;;8.90;3.30;;;;;;;;;;4996097;28;20038;-93
2023/09/13 09:02:55;;;;;;;15.60;3.63;;;;;;;;;;4985036;28;20050;-95
2023/09/13 09:05:28;;;;;;;11.55;3.40;;;;;;;;;;4998267;28;20114;-92
2023/09/13 09:07:55;;;;;;;5.93;2.10;;;;;;;;;;4966637;28;20050;-93
2023/09/13 09:10:21;;;;;;;9.32;3.25;;;;;;;;;;4983182;28;20044;-92
2023/09/13 09:12:49;;;;;;;7.63;3.05;;;;;;;;;;4997274;28;20514;-96
2023/09/13 09:15:17;;;;;;;5.70;2.78;;;;;;;;;;4997426;28;20049;-93
2023/09/13 09:17:45;;;;;;;10.48;2.60;;;;;;;;;;4972835;28;20030;-91
2023/09/13 09:20:11;;;;;;;10.05;2.72;;;;;;;;;;4968286;28;20050;-95
2023/09/13 09:22:38;;;;;;;9.75;3.22;;;;;;;;;;4967941;28;20043;-94
2023/09/13 09:25:09;;;;;;;8.80;2.97;;;;;;;;;;4973039;28;20035;-93
2023/09/13 09:27:37;;;;;;;7.45;3.13;;;;;;;;;;4969109;28;20085;-92
2023/09/13 09:30:04;;;;;;;8.00;2.25;;;;;;;;;;4956757;28;20034;-92
2023/09/13 09:32:30;;;;;;;8.02;2.70;;;;;;;;;;4970771;28;20086;-94
2023/09/13 09:34:59;;;;;;;8.65;3.33;;;;;;;;;;4971918;28;20038;-92
2023/09/13 09:37:33;;;;;;;5.53;2.80;;;;;;;;;;4983931;28;20814;-91
2023/09/13 09:39:59;;;;;;;7.47;3.42;;;;;;;;;;4971407;28;20050;-92
2023/09/13 09:42:26;;;;;;;9.50;3.88;;;;;;;;;;4970252;28;20050;-93
2023/09/13 09:44:52;;;;;;;9.07;3.10;;;;;;;;;;4971874;28;20121;-92
2023/09/13 09:48:14;;;;;;;9.35;3.75;;;;;;;;;;4971974;28;20050;-92
2023/09/13 09:51:57;;;;;;;14.52;2.83;;;;;;;;;;4968863;28;20642;-91
2023/09/13 09:54:53;;;;;;;;;;;;;;;;;;;;;
2023/09/13 09:57:45;;;;;;;8.57;3.67;;;;;;;;;;4952334;28;20110;-91
2023/09/13 10:00:26;;;;;;;4.47;2.63;;;;;;;;;;4936890;28;20050;-90
2023/09/13 10:03:15;;;;;;;;;;;;;;;;;;;;;
2023/09/13 10:05:53;;;;;;;8.05;3.15;;;;;;;;;;4951665;28;20078;-89
2023/09/13 10:08:20;;;;;;;11.57;3.75;;;;;;;;;;4936486;28;20586;-89
2023/09/13 10:11:03;;;;;;;8.48;2.70;;;;;;;;;;4954601;28;20058;-89
2023/09/13 10:13:32;;;;;;;16.48;4.85;;;;;;;;;;4950670;28;20803;-88
2023/09/13 10:16:02;;;;;;;4.47;2.92;;;;;;;;;;4964050;28;20047;-89
2023/09/13 10:18:30;;;;;;;7.68;3.90;;;;;;;;;;5005434;28;20045;-90
2023/09/13 10:21:00;;;;;;;6.43;2.92;;;;;;;;;;4984657;28;20149;-89
2023/09/13 10:23:58;;;;;;;2.63;2.10;;;;;;;;;;4972456;28;20084;-90
2023/09/13 10:26:34;;;;;;;8.47;3.13;;;;;;;;;;4954360;28;20057;-89
2023/09/13 10:29:24;;;;;;;7.05;2.65;;;;;;;;;;4970038;28;20141;-89
2023/09/13 10:31:51;;;;;;;11.20;3.00;;;;;;;;;;4961446;28;20051;-88
2023/09/13 10:34:27;;;;;;;9.38;4.55;;;;;;;;;;4970705;28;20049;-88
2023/09/13 10:37:05;;;;;;;7.32;3.10;;;;;;;;;;4998911;28;20081;-89
2023/09/13 10:39:37;;;;;;;6.90;3.33;;;;;;;;;;4971108;28;20047;-89
2023/09/13 10:42:04;;;;;;;6.55;4.25;;;;;;;;;;4984950;28;20174;-87
2023/09/13 10:44:30;;;;;;;6.70;3.20;;;;;;;;;;4968888;28;20104;-87
2023/09/13 10:46:59;;;;;;;6.10;2.80;;;;;;;;;;4967482;28;20055;-89
2023/09/13 10:49:27;;;;;;;4.65;2.20;;;;;;;;;;4970396;28;20082;-88
2023/09/13 10:51:58;;;;;;;4.15;2.40;;;;;;;;;;4987865;28;20112;-88
2023/09/13 10:54:25;;;;;;;7.00;2.30;;;;;;;;;;4988698;28;20053;-89
2023/09/13 10:56:52;;;;;;;6.55;2.83;;;;;;;;;;4969998;28;20050;-89
2023/09/13 10:59:22;;;;;;;6.78;2.78;;;;;;;;;;4969841;28;20046;-89
2023/09/13 11:02:07;;;;;;;11.05;3.33;;;;;;;;;;4971042;28;20046;-89
2023/09/13 11:04:38;;;;;;;9.50;3.15;;;;;;;;;;5001024;28;20118;-89
2023/09/13 11:07:05;;;;;;;6.93;3.20;;;;;;;;;;4976636;28;20097;-91
2023/09/13 11:09:54;;;;;;;5.88;2.22;;;;;;;;;;4958533;28;20062;-90
2023/09/13 11:12:26;;;;;;;3.40;2.03;;;17.80;1.00;;;;;;4986700;28;20074;-88
2023/09/13 11:14:52;;;;;;;7.93;2.63;;;;;;;;;;4954985;28;20062;-88
2023/09/13 11:17:37;;;;;;;5.20;2.60;;;;;;;;;;4986844;28;20070;-89
2023/09/13 11:20:22;;;;;;;4.57;2.30;;;;;;;;;;4970840;28;20046;-89
2023/09/13 11:23:21;;;;;;;7.20;2.10;;;18.10;1.00;;;;;;4986960;28;20054;-88
2023/09/13 11:25:53;;;;;;;4.15;1.60;;;;;;;;;;4928594;28;20062;-89
2023/09/13 11:28:31;;;;;;;3.85;2.20;;;;;;;;;;4971325;28;20046;-88
2023/09/13 11:30:59;;;;;;;10.52;3.35;;;;;;;;;;4973186;28;20196;-89
2023/09/13 11:33:28;;;;;;;4.28;2.13;;;;;;;;;;4969785;28;20550;-88
2023/09/13 11:36:01;;;;;;;2.65;1.65;;;;;;;;;;4954758;28;20052;-89
2023/09/13 11:38:27;;;;;;;10.40;1.83;;;;;;;;;;4955232;28;20046;-89
2023/09/13 11:40:57;;;;;;;6.22;2.30;;;18.10;1.00;;;;;;4985856;28;20050;-89
2023/09/13 11:43:30;;;;;;;4.45;1.95;;;17.90;1.00;;;;;;4987916;28;20043;-88
2023/09/13 11:46:00;;;;;;;5.63;1.55;;;;;;;;;;4970205;28;20070;-88
2023/09/13 11:48:32;;;;;;;4.37;1.63;;;;;;;;;;4968335;28;20050;-90
2023/09/13 11:51:11;;;;;;;8.55;1.70;;;17.60;1.00;;;;;;4984544;28;20047;-88
2023/09/13 11:53:38;;;;;;;7.13;2.92;;;;;;;;;;4968142;28;20053;-87
2023/09/13 11:56:04;;;;;;;5.20;1.65;;;;;;;;;;4983673;28;20038;-88
2023/09/13 11:58:32;;;;;;;10.10;2.83;;;;;;;;;;4984367;28;20050;-88
2023/09/13 12:01:03;;;;;;;4.55;1.85;;;;;;;;;;4967050;28;20038;-88
2023/09/13 12:03:36;;;;;;;5.97;1.80;;;18.10;1.00;;;;;;4985406;28;20125;-88
2023/09/13 12:06:03;;;;;;;8.02;2.08;;;;;;;;;;4965175;28;20606;-87
2023/09/13 12:08:29;;;;;;;7.50;1.70;;;;;;;;;;4979767;28;20093;-88
2023/09/13 12:10:56;;;;;;;3.03;1.40;;;;;;;;;;4967108;28;20061;-87
2023/09/13 12:13:43;;;;;;;4.95;1.70;;;18.00;1.00;;;;;;4992731;28;20042;-88
2023/09/13 12:16:09;;;;;;;7.47;2.25;;;;;;;;;;4967573;28;20422;-88
2023/09/13 12:18:37;;;;;;;9.65;3.15;;;18.00;1.00;;;;;;4966425;28;21495;-88
2023/09/13 12:21:03;;;;;;;6.45;1.70;;;;;;;;;;4993978;28;20474;-88
2023/09/13 12:23:36;;;;;;;6.47;1.90;;;;;;;;;;4966154;28;20402;-89
2023/09/13 12:26:05;;;;;;;5.13;2.08;;;17.60;1.00;;;;;;4980929;28;20478;-87
2023/09/13 12:28:36;;;;;;;6.63;1.75;;;17.80;1.00;;;;;;4981900;28;20046;-87
2023/09/13 12:31:15;;;;;;;9.75;2.47;;;;;;;;;;4965489;28;20061;-87
2023/09/13 12:33:48;;;;;;;9.27;2.47;;;17.90;1.00;;;;;;4994816;28;20038;-88
2023/09/13 12:36:15;;;;;;;;;;;;;;;;;;4982739;28;20043;-89
2023/09/13 12:38:44;;;;;;;6.57;1.83;;;;;;;;;;4982957;28;19922;-87
2023/09/13 12:41:10;;;;;;;8.25;3.78;;;;;;;;;;4982751;28;20154;-87
2023/09/13 12:43:36;;;;;;;8.45;2.50;;;;;;;;;;4966773;28;20093;-88
2023/09/13 12:46:03;;;;;;;7.72;2.42;;;;;;;;;;4982105;28;20529;-87
2023/09/13 12:48:31;;;;;;;8.23;2.58;;;;;;;;;;4965735;28;20133;-88
2023/09/13 12:50:59;;;;;;;7.40;1.95;;;18.00;1.00;;;;;;4950119;28;20065;-87
2023/09/13 12:53:28;;;;;;;5.20;1.88;;;;;;;;;;4966109;28;20411;-87
2023/09/13 12:55:54;;;;;;;6.93;1.95;;;;;;;;;;4981722;28;20048;-87
2023/09/13 12:58:20;;;;;;;5.78;2.65;;;;;;;;;;4982482;28;20495;-87
2023/09/13 13:00:54;;;;;;;2.75;2.20;;;17.60;1.00;;;;;;4964496;28;20050;-87
2023/09/13 13:03:20;;;;;;;;;;;17.90;1.00;;;;;;4982801;28;20085;-88
2023/09/13 13:05:46;;;;;;;6.00;1.85;;;;;;;;;;4966010;28;20032;-87
2023/09/13 13:08:13;;;;;;;9.15;2.28;;;;;;;;;;4967309;28;20208;-87
2023/09/13 13:10:59;;;;;;;5.65;1.98;;;17.80;1.00;;;;;;4977691;28;20406;-87
2023/09/13 13:13:32;;;;;;;8.60;3.15;;;;;;;;;;4981699;28;20050;-87
2023/09/13 13:15:58;;;;;;;11.32;3.70;;;;;;;;;;4981482;28;20114;-87
2023/09/13 13:18:24;;;;;;;5.53;2.05;;;;;;;;;;4964339;28;20061;-88
2023/09/13 13:20:51;;;;;;;11.60;2.33;;;;;;;;;;4965006;28;20049;-87
2023/09/13 13:23:17;;;;;;;4.18;1.95;;;;;;;;;;4981401;28;20431;-87
2023/09/13 13:25:43;;;;;;;6.30;2.28;;;;;;;;;;4950513;28;20523;-87
2023/09/13 13:28:09;;;;;;;8.55;2.45;;;;;;;;;;4965077;28;20047;-88
2023/09/13 13:30:37;;;;;;;5.63;2.13;;;17.50;1.00;;;;;;4964238;28;20101;-87
2023/09/13 13:33:03;;;;;;;7.95;1.90;;;;;;;;;;4982027;28;20043;-88
2023/09/13 13:35:30;;;;;;;9.68;1.85;;;;;;;;;;4978251;28;20042;-87
2023/09/13 13:37:56;;;;;;;6.47;2.42;;;;;;;;;;4965651;28;20050;-87
2023/09/13 13:40:22;;;;;;;6.35;1.75;;;;;;;;;;4946649;28;20046;-87
2023/09/13 13:42:48;;;;;;;9.25;2.47;;;;;;;;;;4958986;28;20129;-87
2023/09/13 13:45:14;;;;;;;5.70;1.92;;;;;;;;;;4964126;28;20487;-89
2023/09/13 13:47:40;;;;;;;6.40;2.55;;;;;;;;;;4980928;28;20054;-89
2023/09/13 13:50:06;;;;;;;6.55;2.35;;;;;;;;;;4980192;28;20646;-88
2023/09/13 13:52:33;;;;;;;4.65;1.70;;;;;;;;;;4947876;28;20069;-88
2023/09/13 13:54:59;;;;;;;5.15;1.77;;;;;;;;;;4964115;28;20042;-89
2023/09/13 13:57:26;;;;;;;6.35;2.00;;;;;;;;;;4948757;28;20555;-88
2023/09/13 13:59:52;;;;;;;6.43;1.92;;;;;;;;;;4980303;28;20050;-88
2023/09/13 14:02:18;;;;;;;5.22;1.80;;;;;;;;;;4964379;28;20053;-88
2023/09/13 14:04:47;;;;;;;8.13;1.92;;;;;;;;;;4949159;28;20097;-88
2023/09/13 14:07:13;;;;;;;5.25;1.77;;;;;;;;;;4964344;28;20074;-88
2023/09/13 14:09:39;;;;;;;12.90;2.42;;;;;;;;;;4964291;28;20046;-88
2023/09/13 14:12:05;;;;;;;12.02;2.75;;;;;;;;;;4966973;28;20276;-89
2023/09/13 14:14:31;;;;;;;10.93;2.42;;;;;;;;;;4980679;28;20054;-88
2023/09/13 14:16:57;;;;;;;10.52;1.88;;;;;;;;;;4983640;28;20509;-88
2023/09/13 14:19:23;;;;;;;6.78;2.63;;;;;;;;;;4967152;28;20054;-89
2023/09/13 14:21:49;;;;;;;6.18;2.30;;;;;;;;;;4951854;28;20053;-88
2023/09/13 14:24:15;;;;;;;8.05;2.95;;;;;;;;;;4967993;28;20058;-88
2023/09/13 14:26:42;;;;;;;3.20;1.70;;;;;;;;;;4967606;28;20049;-88
2023/09/13 14:29:08;;;;;;;5.50;2.38;;;;;;;;;;4967200;28;20042;-89
2023/09/13 14:31:36;;;;;;;10.35;2.28;;;;;;;;;;4967222;28;20085;-88
2023/09/13 14:34:05;;;;;;;5.30;2.13;;;;;;;;;;4982383;28;20419;-89
2023/09/13 14:36:32;;;;;;;9.07;1.90;;;;;;;;;;4952108;28;20711;-89
2023/09/13 14:38:58;;;;;;;9.07;3.13;;;;;;;;;;4978330;28;20046;-88
2023/09/13 14:41:24;;;;;;;6.32;1.83;;;;;;;;;;4970696;28;20495;-88
2023/09/13 14:43:52;;;;;;;9.45;2.00;;;;;;;;;;4967589;28;20042;-89
2023/09/13 14:46:18;;;;;;;9.10;2.00;;;;;;;;;;4983078;28;20054;-89
2023/09/13 14:48:46;;;;;;;8.90;3.05;;;;;;;;;;4967548;28;20557;-90